createdAt,value
2023-04-08T00:00:50.172Z,68.23
2023-04-08T00:03:17.690Z,69.75
2023-04-08T00:05:46.421Z,68.34
2023-04-08T00:08:14.108Z,68.52
2023-04-08T00:10:41.494Z,68.95
2023-04-08T00:13:08.841Z,68.51
2023-04-08T00:15:37.135Z,68.21
2023-04-08T00:18:04.176Z,69.02
2023-04-08T00:20:31.303Z,68.64
2023-04-08T00:22:58.219Z,69.32
2023-04-08T00:25:26.023Z,68.59
2023-04-08T00:27:53.089Z,67.95
2023-04-08T00:30:20.012Z,69.18
2023-04-08T00:32:47.352Z,70.02
2023-04-08T00:35:14.383Z,70.87
2023-04-08T00:37:41.903Z,72.20
2023-04-08T00:40:09.458Z,71.30
2023-04-08T00:42:36.976Z,70.31
2023-04-08T00:45:04.148Z,71.30
2023-04-08T00:47:31.421Z,69.93
2023-04-08T00:49:58.356Z,68.61
2023-04-08T00:52:26.190Z,68.08
2023-04-08T00:54:53.167Z,68.99
2023-04-08T00:57:20.288Z,70.92
2023-04-08T00:59:47.226Z,71.39
2023-04-08T01:03:16.142Z,71.78
2023-04-08T01:05:54.321Z,72.92
2023-04-08T01:08:21.890Z,71.47
2023-04-08T01:10:51.857Z,70.21
2023-04-08T01:13:19.284Z,69.89
2023-04-08T01:15:46.500Z,69.91
2023-04-08T01:18:14.613Z,70.20
2023-04-08T01:20:42.700Z,70.29
2023-04-08T01:23:54.396Z,70.60
2023-04-08T01:26:23.775Z,72.65
2023-04-08T01:28:52.798Z,74.27
2023-04-08T01:31:19.694Z,74.20
2023-04-08T01:33:48.358Z,73.49
2023-04-08T01:36:15.890Z,74.33
2023-04-08T01:38:42.810Z,74.42
2023-04-08T01:41:10.956Z,72.70
2023-04-08T01:43:40.667Z,74.20
2023-04-08T01:46:08.738Z,72.33
2023-04-08T01:48:36.271Z,71.97
2023-04-08T01:51:05.240Z,71.06
2023-04-08T01:53:33.091Z,71.90
2023-04-08T01:56:05.456Z,73.29
2023-04-08T01:58:41.432Z,74.36
2023-04-08T02:01:12.628Z,75.00
2023-04-08T02:03:42.749Z,74.93
2023-04-08T02:06:09.595Z,75.42
2023-04-08T02:08:39.296Z,74.56
2023-04-08T02:11:06.522Z,74.53
2023-04-08T02:13:33.513Z,75.79
2023-04-08T02:16:16.708Z,76.61
2023-04-08T02:18:46.568Z,77.70
2023-04-08T02:21:15.851Z,76.75
2023-04-08T02:23:45.984Z,77.52
2023-04-08T02:26:17.355Z,77.36
2023-04-08T02:28:45.064Z,78.32
2023-04-08T02:31:14.006Z,77.90
2023-04-08T02:33:41.465Z,77.55
2023-04-08T02:36:08.582Z,78.66
2023-04-08T02:38:35.677Z,79.09
2023-04-08T02:41:02.385Z,81.14
2023-04-08T02:43:32.733Z,82.19
2023-04-08T02:46:01.068Z,81.90
2023-04-08T02:48:27.838Z,82.07
2023-04-08T02:50:54.777Z,82.16
2023-04-08T02:53:22.706Z,81.73
2023-04-08T02:55:49.556Z,82.62
2023-04-08T02:58:16.355Z,83.20
2023-04-08T03:00:43.675Z,82.68
2023-04-08T03:03:10.634Z,83.13
2023-04-08T03:05:37.461Z,82.93
2023-04-08T03:08:04.207Z,82.57
2023-04-08T03:10:31.323Z,82.77
2023-04-08T03:12:58.051Z,83.40
2023-04-08T03:15:24.840Z,82.72
2023-04-08T03:17:51.759Z,82.71
2023-04-08T03:20:18.563Z,83.80
2023-04-08T03:22:45.252Z,83.38
2023-04-08T03:25:12.194Z,83.46
2023-04-08T03:27:38.910Z,84.19
2023-04-08T03:30:06.426Z,83.98
2023-04-08T03:32:33.559Z,84.87
2023-04-08T03:35:00.701Z,83.99
2023-04-08T03:37:27.560Z,82.98
2023-04-08T03:39:55.764Z,83.06
2023-04-08T03:42:22.983Z,83.19
2023-04-08T03:44:49.754Z,83.52
2023-04-08T03:47:16.508Z,83.81
2023-04-08T03:49:43.269Z,86.12
2023-04-08T03:52:10.018Z,86.66
2023-04-08T03:54:36.808Z,87.44
2023-04-08T03:57:03.614Z,88.27
2023-04-08T03:59:30.384Z,87.22
2023-04-08T04:01:57.461Z,86.04
2023-04-08T04:04:24.512Z,84.51
2023-04-08T04:06:51.298Z,86.21
2023-04-08T04:09:18.144Z,86.49
2023-04-08T04:11:44.845Z,85.90
2023-04-08T04:14:11.756Z,88.07
2023-04-08T04:16:38.591Z,88.03
2023-04-08T04:19:05.459Z,87.59
2023-04-08T04:21:32.207Z,84.77
2023-04-08T04:23:58.971Z,86.92
2023-04-08T04:26:25.990Z,86.10
2023-04-08T04:28:52.992Z,88.39
2023-04-08T04:31:22.189Z,86.71
2023-04-08T04:33:49.621Z,86.51
2023-04-08T04:36:16.431Z,87.25
2023-04-08T04:38:43.460Z,87.43
2023-04-08T04:41:11.466Z,87.24
2023-04-08T04:43:38.441Z,88.36
2023-04-08T04:46:07.520Z,87.62
2023-04-08T04:48:34.305Z,87.83
2023-04-08T04:51:04.674Z,88.28
2023-04-08T04:53:31.947Z,87.22
2023-04-08T04:55:58.973Z,84.83
2023-04-08T04:58:25.749Z,85.15
2023-04-08T05:00:52.609Z,85.62
2023-04-08T05:03:19.484Z,84.84
2023-04-08T05:05:51.469Z,85.86
2023-04-08T05:08:18.200Z,87.45
2023-04-08T05:10:44.895Z,89.13
2023-04-08T05:13:11.639Z,90.72
2023-04-08T05:15:38.358Z,87.74
2023-04-08T05:18:05.191Z,85.37
2023-04-08T05:20:32.511Z,87.92
2023-04-08T05:22:59.209Z,88.10
2023-04-08T05:25:26.012Z,88.29
2023-04-08T05:27:53.275Z,88.03
2023-04-08T05:30:20.230Z,87.06
2023-04-08T05:32:47.348Z,88.42
2023-04-08T05:35:14.161Z,88.22
2023-04-08T05:37:41.068Z,86.79
2023-04-08T05:40:08.510Z,87.25
2023-04-08T05:42:35.269Z,87.88
2023-04-08T05:45:02.102Z,88.06
2023-04-08T05:47:28.861Z,86.33
2023-04-08T05:49:55.668Z,87.41
2023-04-08T05:52:22.718Z,87.66
2023-04-08T05:54:49.557Z,88.09
2023-04-08T05:57:17.113Z,88.15
2023-04-08T05:59:43.852Z,86.58
2023-04-08T06:02:10.813Z,85.09
2023-04-08T06:04:37.787Z,87.62
2023-04-08T06:07:06.322Z,87.86
2023-04-08T06:09:36.384Z,86.20
2023-04-08T06:12:03.292Z,86.14
2023-04-08T06:14:30.026Z,87.00
2023-04-08T06:16:57.871Z,87.17
2023-04-08T06:19:25.183Z,86.28
2023-04-08T06:21:51.986Z,86.85
2023-04-08T06:24:19.227Z,85.50
2023-04-08T06:26:45.963Z,85.19
2023-04-08T06:29:12.669Z,85.04
2023-04-08T06:31:39.715Z,85.13
2023-04-08T06:34:06.454Z,85.38
2023-04-08T06:36:33.355Z,86.56
2023-04-08T06:39:00.274Z,86.73
2023-04-08T06:41:26.999Z,85.33
2023-04-08T06:43:53.760Z,85.69
2023-04-08T06:46:21.189Z,85.61
2023-04-08T06:48:48.269Z,83.75
2023-04-08T06:51:15.207Z,84.17
2023-04-08T06:53:41.915Z,85.62
2023-04-08T06:56:08.704Z,85.29
2023-04-08T06:58:35.659Z,87.04
2023-04-08T07:01:03.534Z,87.41
2023-04-08T07:03:30.404Z,87.00
2023-04-08T07:05:57.112Z,86.35
2023-04-08T07:08:23.840Z,87.97
2023-04-08T07:10:52.983Z,87.20
2023-04-08T07:13:19.766Z,87.34
2023-04-08T07:15:46.589Z,87.83
2023-04-08T07:18:14.036Z,87.16
2023-04-08T07:20:42.249Z,86.93
2023-04-08T07:23:09.912Z,88.04
2023-04-08T07:25:37.752Z,88.55
2023-04-08T07:28:04.625Z,89.30
2023-04-08T07:30:31.346Z,89.55
2023-04-08T07:33:00.747Z,89.69
2023-04-08T07:35:28.274Z,89.57
2023-04-08T07:37:55.806Z,89.51
2023-04-08T07:40:22.684Z,90.13
2023-04-08T07:42:49.596Z,89.21
2023-04-08T07:45:16.702Z,88.80
2023-04-08T07:47:44.519Z,91.66
2023-04-08T07:50:12.243Z,91.36
2023-04-08T07:52:38.959Z,91.77
2023-04-08T07:55:06.804Z,91.86
2023-04-08T07:57:33.570Z,93.11
2023-04-08T08:00:00.676Z,94.26
2023-04-08T08:02:27.495Z,93.52
2023-04-08T08:04:54.318Z,93.98
2023-04-08T08:07:21.253Z,95.60
2023-04-08T08:09:48.057Z,95.04
2023-04-08T08:12:14.793Z,94.36
2023-04-08T08:14:41.505Z,95.45
2023-04-08T08:17:08.231Z,95.77
2023-04-08T08:19:35.001Z,95.83
2023-04-08T08:22:01.750Z,97.07
2023-04-08T08:24:28.559Z,96.36
2023-04-08T08:26:55.884Z,97.05
2023-04-08T08:29:22.627Z,95.71
2023-04-08T08:31:49.602Z,95.71
2023-04-08T08:34:16.980Z,94.71
2023-04-08T08:36:43.750Z,94.57
2023-04-08T08:39:10.603Z,95.10
2023-04-08T08:41:38.033Z,95.24
2023-04-08T08:44:12.476Z,96.23
2023-04-08T08:46:47.648Z,95.64
2023-04-08T08:49:14.541Z,94.65
2023-04-08T08:51:42.504Z,94.19
2023-04-08T08:54:09.436Z,94.02
2023-04-08T08:56:36.222Z,94.47
2023-04-08T08:59:03.186Z,95.07
2023-04-08T09:01:38.609Z,93.94
2023-04-08T09:04:17.428Z,94.23
2023-04-08T09:06:47.174Z,93.76
2023-04-08T09:09:14.489Z,93.86
2023-04-08T09:11:46.569Z,94.59
2023-04-08T09:14:26.446Z,93.61
2023-04-08T09:16:53.675Z,94.37
2023-04-08T09:19:20.776Z,94.31
2023-04-08T09:22:05.045Z,93.73
2023-04-08T09:24:32.387Z,93.94
2023-04-08T09:26:59.344Z,93.30
2023-04-08T09:29:33.373Z,93.53
2023-04-08T09:32:03.675Z,93.29
2023-04-08T09:34:32.661Z,92.04
2023-04-08T09:36:59.504Z,93.14
2023-04-08T09:39:26.284Z,91.78
2023-04-08T09:41:53.296Z,92.52
2023-04-08T09:44:22.175Z,92.13
2023-04-08T09:47:12.445Z,92.64
2023-04-08T09:49:45.267Z,93.81
2023-04-08T09:52:16.005Z,92.63
2023-04-08T09:55:05.405Z,94.49
2023-04-08T09:57:57.235Z,93.34
2023-04-08T10:00:30.369Z,93.22
2023-04-08T10:03:45.655Z,92.82
2023-04-08T10:06:12.834Z,92.78
2023-04-08T10:08:39.628Z,92.70
2023-04-08T10:11:06.738Z,92.15
2023-04-08T10:13:33.884Z,92.32
2023-04-08T10:16:27.768Z,91.81
2023-04-08T10:18:57.645Z,92.00
2023-04-08T10:21:53.912Z,90.93
2023-04-08T10:24:25.927Z,91.93
2023-04-08T10:26:52.654Z,92.50
2023-04-08T10:29:39.640Z,92.90
2023-04-08T10:32:06.604Z,93.61
2023-04-08T10:34:33.435Z,92.20
2023-04-08T10:37:02.270Z,91.08
2023-04-08T10:39:29.116Z,92.31
2023-04-08T10:41:56.607Z,92.65
2023-04-08T10:44:25.332Z,93.08
2023-04-08T10:46:53.119Z,93.33
2023-04-08T10:49:20.031Z,93.22
2023-04-08T10:51:47.350Z,93.27
2023-04-08T10:54:16.742Z,93.14
2023-04-08T10:56:51.251Z,91.82
2023-04-08T10:59:27.532Z,91.77
2023-04-08T11:01:54.372Z,91.72
2023-04-08T11:04:24.340Z,91.59
2023-04-08T11:06:51.783Z,91.48
2023-04-08T11:09:21.615Z,91.21
2023-04-08T11:11:48.334Z,91.51
2023-04-08T11:14:17.513Z,91.23
2023-04-08T11:16:44.303Z,91.24
2023-04-08T11:19:13.991Z,90.98
2023-04-08T11:21:40.783Z,90.60
2023-04-08T11:24:12.388Z,92.06
2023-04-08T11:26:39.932Z,90.63
2023-04-08T11:29:07.282Z,91.68
2023-04-08T11:31:36.211Z,89.17
2023-04-08T11:34:03.257Z,88.95
2023-04-08T11:36:30.528Z,86.79
2023-04-08T11:38:57.375Z,88.50
2023-04-08T11:41:24.211Z,88.54
2023-04-08T11:43:52.481Z,86.41
2023-04-08T11:46:20.790Z,87.07
2023-04-08T11:49:04.585Z,89.79
2023-04-08T11:51:31.341Z,88.93
2023-04-08T11:53:58.262Z,88.95
2023-04-08T11:56:25.912Z,87.78
2023-04-08T11:58:53.034Z,87.86
2023-04-08T12:01:20.098Z,87.02
2023-04-08T12:04:01.609Z,85.85
2023-04-08T12:06:29.450Z,85.86
2023-04-08T12:08:57.232Z,85.75
2023-04-08T12:11:24.956Z,84.94
2023-04-08T12:13:53.280Z,85.76
2023-04-08T12:16:21.030Z,85.65
2023-04-08T12:18:47.947Z,85.58
2023-04-08T12:21:14.795Z,84.50
2023-04-08T12:23:43.483Z,85.07
2023-04-08T12:26:10.608Z,84.97
2023-04-08T12:28:37.996Z,85.00
2023-04-08T12:31:08.042Z,85.20
2023-04-08T12:33:34.849Z,86.21
2023-04-08T12:36:02.160Z,85.58
2023-04-08T12:38:29.026Z,86.20
2023-04-08T12:40:56.429Z,86.32
2023-04-08T12:43:24.015Z,86.64
2023-04-08T12:45:51.169Z,86.00
2023-04-08T12:48:18.037Z,87.06
2023-04-08T12:50:45.073Z,85.95
2023-04-08T12:53:11.865Z,84.95
2023-04-08T12:55:38.558Z,85.11
2023-04-08T12:58:06.368Z,84.97
2023-04-08T13:00:33.532Z,84.11
2023-04-08T13:03:00.739Z,85.18
2023-04-08T13:05:41.861Z,84.71
2023-04-08T13:08:10.058Z,85.11
2023-04-08T13:10:36.867Z,85.11
2023-04-08T13:13:03.687Z,84.66
2023-04-08T13:15:30.824Z,84.90
2023-04-08T13:17:57.588Z,85.52
2023-04-08T13:20:26.306Z,85.71
2023-04-08T13:22:53.461Z,86.63
2023-04-08T13:25:20.668Z,85.97
2023-04-08T13:27:47.409Z,86.96
2023-04-08T13:30:14.542Z,85.11
2023-04-08T13:32:41.590Z,86.59
2023-04-08T13:35:08.915Z,86.70
2023-04-08T13:37:35.869Z,86.76
2023-04-08T13:40:02.766Z,87.39
2023-04-08T13:42:31.733Z,88.98
2023-04-08T13:44:58.689Z,88.79
2023-04-08T13:47:25.749Z,89.00
2023-04-08T13:49:52.471Z,89.79
2023-04-08T13:52:19.447Z,89.37
2023-04-08T13:54:46.462Z,89.75
2023-04-08T13:57:13.378Z,90.65
2023-04-08T13:59:41.322Z,91.38
2023-04-08T14:02:08.815Z,92.05
2023-04-08T14:04:35.842Z,91.51
2023-04-08T14:07:02.918Z,91.95
2023-04-08T14:09:29.851Z,92.15
2023-04-08T14:11:57.222Z,91.77
2023-04-08T14:14:23.943Z,92.26
2023-04-08T14:16:50.994Z,92.28
2023-04-08T14:19:18.272Z,91.66
2023-04-08T14:21:45.175Z,91.53
2023-04-08T14:24:11.907Z,91.81
2023-04-08T14:26:38.770Z,91.22
2023-04-08T14:29:06.814Z,90.54
2023-04-08T14:31:37.731Z,89.48
2023-04-08T14:34:05.142Z,90.08
2023-04-08T14:36:31.982Z,89.52
2023-04-08T14:38:59.036Z,88.42
2023-04-08T14:41:28.911Z,88.74
2023-04-08T14:43:55.978Z,87.89
2023-04-08T14:46:23.153Z,86.49
2023-04-08T14:48:50.110Z,87.45
2023-04-08T14:51:17.897Z,87.37
2023-04-08T14:53:45.066Z,85.93
2023-04-08T14:56:12.131Z,86.04
2023-04-08T14:58:38.940Z,85.79
2023-04-08T15:01:05.754Z,86.26
2023-04-08T15:03:32.717Z,86.35
2023-04-08T15:06:00.013Z,87.01
2023-04-08T15:08:26.776Z,87.28
2023-04-08T15:10:53.490Z,86.52
2023-04-08T15:13:20.229Z,86.05
2023-04-08T15:15:46.966Z,87.29
2023-04-08T15:18:13.750Z,86.09
2023-04-08T15:20:40.520Z,83.35
2023-04-08T15:23:07.302Z,82.54
2023-04-08T15:25:34.555Z,82.37
2023-04-08T15:28:03.011Z,81.87
2023-04-08T15:30:35.628Z,82.40
2023-04-08T15:33:05.917Z,82.73
2023-04-08T15:35:33.344Z,83.48
2023-04-08T15:38:00.897Z,82.56
2023-04-08T15:40:30.485Z,82.24
2023-04-08T15:43:02.535Z,82.59
2023-04-08T15:45:42.737Z,82.82
2023-04-08T15:48:12.081Z,82.58
2023-04-08T15:50:39.277Z,83.25
2023-04-08T15:53:06.134Z,82.80
2023-04-08T15:55:38.106Z,82.94
2023-04-08T15:58:04.974Z,82.42
2023-04-08T16:00:32.067Z,82.92
2023-04-08T16:02:58.876Z,82.61
2023-04-08T16:05:25.777Z,82.76
2023-04-08T16:07:52.781Z,82.61
2023-04-08T16:10:19.491Z,81.89
2023-04-08T16:12:46.618Z,79.34
2023-04-08T16:15:13.399Z,79.09
2023-04-08T16:17:40.279Z,81.04
2023-04-08T16:20:07.697Z,80.22
2023-04-08T16:22:34.450Z,79.50
2023-04-08T16:25:01.484Z,79.76
2023-04-08T16:27:28.207Z,79.02
2023-04-08T16:29:55.007Z,79.75
2023-04-08T16:32:22.416Z,79.51
2023-04-08T16:34:49.201Z,78.97
2023-04-08T16:37:15.982Z,78.47
2023-04-08T16:39:42.811Z,78.59
2023-04-08T16:42:09.733Z,79.05
2023-04-08T16:44:36.489Z,79.27
2023-04-08T16:47:03.335Z,78.97
2023-04-08T16:49:30.084Z,80.26
2023-04-08T16:51:56.861Z,78.64
2023-04-08T16:54:23.718Z,79.95
2023-04-08T16:56:50.924Z,79.92
2023-04-08T16:59:17.739Z,80.11
2023-04-08T17:01:44.549Z,80.94
2023-04-08T17:04:11.751Z,80.54
2023-04-08T17:06:41.149Z,80.27
2023-04-08T17:09:09.424Z,80.05
2023-04-08T17:11:36.314Z,79.74
2023-04-08T17:14:03.847Z,79.35
2023-04-08T17:16:31.674Z,78.71
2023-04-08T17:18:58.457Z,79.46
2023-04-08T17:21:25.161Z,80.26
2023-04-08T17:23:52.497Z,79.75
2023-04-08T17:26:19.658Z,79.40
2023-04-08T17:28:46.560Z,80.30
2023-04-08T17:31:13.362Z,80.54
2023-04-08T17:33:40.156Z,80.42
2023-04-08T17:36:07.393Z,81.11
2023-04-08T17:38:35.896Z,80.91
2023-04-08T17:41:02.670Z,81.24
2023-04-08T17:43:29.415Z,81.10
2023-04-08T17:46:00.146Z,79.93
2023-04-08T17:48:27.536Z,80.06
2023-04-08T17:51:01.925Z,81.22
2023-04-08T17:53:28.994Z,82.17
2023-04-08T17:55:55.722Z,81.90
2023-04-08T17:58:23.143Z,82.12
2023-04-08T18:00:50.396Z,82.57
2023-04-08T18:03:17.272Z,83.03
2023-04-08T18:05:44.233Z,83.28
2023-04-08T18:08:11.230Z,83.11
2023-04-08T18:10:38.466Z,83.35
2023-04-08T18:13:11.304Z,83.39
2023-04-08T18:15:38.865Z,83.47
2023-04-08T18:18:05.841Z,83.51
2023-04-08T18:20:39.002Z,83.65
2023-04-08T18:23:05.799Z,83.15
2023-04-08T18:25:32.739Z,82.55
2023-04-08T18:27:59.801Z,82.21
2023-04-08T18:30:27.053Z,81.82
2023-04-08T18:32:53.877Z,83.51
2023-04-08T18:35:20.696Z,85.48
2023-04-08T18:37:47.500Z,86.03
2023-04-08T18:40:14.301Z,85.89
2023-04-08T18:42:41.068Z,86.57
2023-04-08T18:45:08.340Z,86.16
2023-04-08T18:47:35.231Z,87.05
2023-04-08T18:50:02.078Z,86.72
2023-04-08T18:52:29.177Z,86.16
2023-04-08T18:54:56.717Z,87.08
2023-04-08T18:57:23.470Z,87.06
2023-04-08T18:59:50.227Z,87.36
2023-04-08T19:02:17.117Z,89.04
2023-04-08T19:04:43.890Z,88.17
2023-04-08T19:07:12.249Z,88.71
2023-04-08T19:09:38.940Z,89.79
2023-04-08T19:12:05.774Z,90.72
2023-04-08T19:14:32.518Z,92.13
2023-04-08T19:16:59.254Z,90.88
2023-04-08T19:19:26.223Z,89.13
2023-04-08T19:21:53.911Z,89.08
2023-04-08T19:24:21.205Z,89.85
2023-04-08T19:26:49.802Z,90.09
2023-04-08T19:29:16.931Z,90.52
2023-04-08T19:31:43.745Z,90.46
2023-04-08T19:34:10.605Z,91.00
2023-04-08T19:36:37.472Z,91.29
2023-04-08T19:39:05.975Z,91.01
2023-04-08T19:41:33.004Z,91.02
2023-04-08T19:43:59.778Z,91.21
2023-04-08T19:46:28.824Z,90.51
2023-04-08T19:48:58.470Z,91.07
2023-04-08T19:51:25.264Z,89.19
2023-04-08T19:53:53.111Z,90.19
2023-04-08T19:56:20.257Z,89.56
2023-04-08T19:58:47.099Z,91.36
2023-04-08T20:01:14.732Z,90.89
2023-04-08T20:03:50.535Z,90.41
2023-04-08T20:06:20.480Z,91.68
2023-04-08T20:08:47.271Z,92.02
2023-04-08T20:11:14.037Z,91.18
2023-04-08T20:13:40.942Z,91.24
2023-04-08T20:16:07.866Z,91.69
2023-04-08T20:18:34.712Z,91.77
2023-04-08T20:21:01.490Z,92.76
2023-04-08T20:23:28.825Z,92.85
2023-04-08T20:25:56.949Z,92.72
2023-04-08T20:28:23.992Z,93.00
2023-04-08T20:30:51.981Z,93.13
2023-04-08T20:33:19.556Z,93.40
2023-04-08T20:35:47.092Z,93.11
2023-04-08T20:38:14.873Z,93.27
2023-04-08T20:40:45.448Z,93.50
2023-04-08T20:43:12.280Z,93.28
2023-04-08T20:45:38.971Z,92.56
2023-04-08T20:48:06.283Z,93.36
2023-04-08T20:50:33.448Z,92.81
2023-04-08T20:53:00.288Z,92.00
2023-04-08T20:55:27.146Z,92.60
2023-04-08T20:57:53.910Z,94.06
2023-04-08T21:00:20.913Z,95.80
2023-04-08T21:02:48.215Z,95.01
2023-04-08T21:05:15.284Z,94.44
2023-04-08T21:07:44.710Z,93.37
2023-04-08T21:10:13.125Z,92.73
2023-04-08T21:12:39.944Z,93.29
2023-04-08T21:15:07.387Z,94.31
2023-04-08T21:17:34.211Z,94.39
2023-04-08T21:20:01.205Z,94.76
2023-04-08T21:22:27.918Z,94.44
2023-04-08T21:24:57.095Z,93.82
2023-04-08T21:27:23.960Z,93.29
2023-04-08T21:29:54.223Z,93.58
2023-04-08T21:32:21.045Z,93.29
2023-04-08T21:34:47.838Z,92.57
2023-04-08T21:37:14.686Z,93.01
2023-04-08T21:39:41.503Z,94.03
2023-04-08T21:42:08.270Z,95.74
2023-04-08T21:44:35.175Z,95.97
2023-04-08T21:47:02.300Z,95.81
2023-04-08T21:49:31.905Z,96.74
2023-04-08T21:51:58.750Z,96.64
2023-04-08T21:54:25.535Z,96.19
2023-04-08T21:56:52.337Z,96.01
2023-04-08T21:59:19.494Z,96.20
2023-04-08T22:01:46.363Z,95.55
2023-04-08T22:04:13.250Z,95.24
2023-04-08T22:06:40.264Z,95.47
2023-04-08T22:09:07.409Z,97.02
2023-04-08T22:11:34.144Z,98.15
2023-04-08T22:14:01.104Z,98.21
2023-04-08T22:16:27.944Z,98.41
2023-04-08T22:18:54.934Z,96.98
2023-04-08T22:21:22.015Z,97.13
2023-04-08T22:23:48.764Z,97.64
2023-04-08T22:26:16.217Z,96.74
2023-04-08T22:28:43.250Z,96.97
2023-04-08T22:31:11.945Z,97.32
2023-04-08T22:33:39.702Z,97.22
2023-04-08T22:36:06.500Z,98.00
2023-04-08T22:38:33.482Z,96.46
2023-04-08T22:41:00.361Z,96.60
2023-04-08T22:43:27.375Z,96.47
2023-04-08T22:45:54.139Z,97.43
2023-04-08T22:48:21.140Z,97.01
2023-04-08T22:50:47.979Z,97.46
2023-04-08T22:53:14.776Z,96.66
2023-04-08T22:55:41.530Z,96.50
2023-04-08T22:58:08.336Z,96.18
2023-04-08T23:00:35.142Z,97.17
2023-04-08T23:03:04.966Z,96.90
2023-04-08T23:05:32.030Z,97.55
2023-04-08T23:07:58.846Z,98.35
2023-04-08T23:10:25.613Z,98.63
2023-04-08T23:12:52.365Z,98.64
2023-04-08T23:15:19.139Z,97.89
2023-04-08T23:17:46.141Z,97.65
2023-04-08T23:20:13.101Z,97.54
2023-04-08T23:22:39.856Z,97.93
2023-04-08T23:25:07.587Z,97.99
2023-04-08T23:27:34.424Z,98.93
2023-04-08T23:30:05.802Z,99.17
2023-04-08T23:32:33.600Z,99.95
2023-04-08T23:35:01.292Z,99.40
2023-04-08T23:37:29.020Z,99.56
2023-04-08T23:39:55.971Z,99.30
2023-04-08T23:42:27.468Z,97.12
2023-04-08T23:44:55.038Z,97.10
2023-04-08T23:47:22.361Z,98.17
2023-04-08T23:49:49.210Z,98.02
2023-04-08T23:52:16.137Z,98.47
2023-04-08T23:54:42.858Z,99.00
2023-04-08T23:57:09.594Z,99.16
2023-04-08T23:59:36.419Z,99.30
